sensor_id;sensor_type;location;lat;lon;timestamp;P1;durP1;ratioP1;P2;durP2;ratioP2
7565;SDS011;3824;48.010;7.832;2022-07-10T00:00:24;1.17;;;1.07;;
7565;SDS011;3824;48.010;7.832;2022-07-10T00:02:52;1.30;;;0.60;;
7565;SDS011;3824;48.010;7.832;2022-07-10T00:05:19;0.90;;;0.70;;
7565;SDS011;3824;48.010;7.832;2022-07-10T00:07:46;0.90;;;0.77;;
7565;SDS011;3824;48.010;7.832;2022-07-10T00:10:13;0.90;;;0.70;;
7565;SDS011;3824;48.010;7.832;2022-07-10T00:12:41;2.50;;;0.70;;
7565;SDS011;3824;48.010;7.832;2022-07-10T00:15:10;0.80;;;0.70;;
7565;SDS011;3824;48.010;7.832;2022-07-10T00:17:37;4.20;;;0.60;;
7565;SDS011;3824;48.010;7.832;2022-07-10T00:20:06;1.00;;;0.70;;
7565;SDS011;3824;48.010;7.832;2022-07-10T00:22:35;1.30;;;0.80;;
7565;SDS011;3824;48.010;7.832;2022-07-10T00:25:03;0.90;;;0.70;;
7565;SDS011;3824;48.010;7.832;2022-07-10T00:27:31;0.90;;;0.60;;
7565;SDS011;3824;48.010;7.832;2022-07-10T00:29:58;0.90;;;0.70;;
7565;SDS011;3824;48.010;7.832;2022-07-10T00:32:26;0.73;;;0.70;;
7565;SDS011;3824;48.010;7.832;2022-07-10T00:34:53;0.80;;;0.70;;
7565;SDS011;3824;48.010;7.832;2022-07-10T00:37:20;2.00;;;0.93;;
7565;SDS011;3824;48.010;7.832;2022-07-10T00:39:47;1.40;;;0.70;;
7565;SDS011;3824;48.010;7.832;2022-07-10T00:42:15;0.93;;;0.67;;
7565;SDS011;3824;48.010;7.832;2022-07-10T00:44:42;1.10;;;0.70;;
7565;SDS011;3824;48.010;7.832;2022-07-10T00:47:09;1.63;;;0.60;;
7565;SDS011;3824;48.010;7.832;2022-07-10T00:49:38;1.00;;;0.90;;
7565;SDS011;3824;48.010;7.832;2022-07-10T00:52:07;1.00;;;0.90;;
7565;SDS011;3824;48.010;7.832;2022-07-10T00:54:35;1.00;;;0.70;;
7565;SDS011;3824;48.010;7.832;2022-07-10T00:57:03;1.10;;;0.90;;
7565;SDS011;3824;48.010;7.832;2022-07-10T00:59:31;0.93;;;0.60;;
7565;SDS011;3824;48.010;7.832;2022-07-10T01:01:58;1.13;;;0.90;;
7565;SDS011;3824;48.010;7.832;2022-07-10T01:04:26;1.00;;;0.90;;
7565;SDS011;3824;48.010;7.832;2022-07-10T01:06:54;1.53;;;0.67;;
7565;SDS011;3824;48.010;7.832;2022-07-10T01:09:21;1.50;;;1.10;;
7565;SDS011;3824;48.010;7.832;2022-07-10T01:11:48;2.00;;;0.80;;
7565;SDS011;3824;48.010;7.832;2022-07-10T01:14:15;1.37;;;0.80;;
7565;SDS011;3824;48.010;7.832;2022-07-10T01:16:42;1.90;;;0.73;;
7565;SDS011;3824;48.010;7.832;2022-07-10T01:19:09;0.70;;;0.60;;
7565;SDS011;3824;48.010;7.832;2022-07-10T01:21:38;1.00;;;0.80;;
7565;SDS011;3824;48.010;7.832;2022-07-10T01:24:05;1.17;;;0.70;;
7565;SDS011;3824;48.010;7.832;2022-07-10T01:26:34;0.70;;;0.60;;
7565;SDS011;3824;48.010;7.832;2022-07-10T01:29:02;1.07;;;0.70;;
7565;SDS011;3824;48.010;7.832;2022-07-10T01:31:31;0.80;;;0.60;;
7565;SDS011;3824;48.010;7.832;2022-07-10T01:33:59;0.90;;;0.80;;
7565;SDS011;3824;48.010;7.832;2022-07-10T01:36:27;0.90;;;0.70;;
7565;SDS011;3824;48.010;7.832;2022-07-10T01:38:55;0.80;;;0.70;;
7565;SDS011;3824;48.010;7.832;2022-07-10T01:41:23;1.20;;;0.70;;
7565;SDS011;3824;48.010;7.832;2022-07-10T01:43:50;0.80;;;0.70;;
7565;SDS011;3824;48.010;7.832;2022-07-10T01:46:18;1.67;;;0.80;;
7565;SDS011;3824;48.010;7.832;2022-07-10T01:48:45;1.77;;;0.70;;
7565;SDS011;3824;48.010;7.832;2022-07-10T01:51:12;7.73;;;0.70;;
7565;SDS011;3824;48.010;7.832;2022-07-10T01:53:40;0.90;;;0.77;;
7565;SDS011;3824;48.010;7.832;2022-07-10T01:56:09;0.90;;;0.60;;
7565;SDS011;3824;48.010;7.832;2022-07-10T01:58:37;1.70;;;0.70;;
7565;SDS011;3824;48.010;7.832;2022-07-10T02:01:05;0.93;;;0.70;;
7565;SDS011;3824;48.010;7.832;2022-07-10T02:03:32;1.37;;;0.70;;
7565;SDS011;3824;48.010;7.832;2022-07-10T02:06:16;0.80;;;0.70;;
7565;SDS011;3824;48.010;7.832;2022-07-10T02:08:43;0.80;;;0.80;;
7565;SDS011;3824;48.010;7.832;2022-07-10T02:11:12;0.93;;;0.80;;
7565;SDS011;3824;48.010;7.832;2022-07-10T02:13:39;5.73;;;0.93;;
7565;SDS011;3824;48.010;7.832;2022-07-10T02:16:06;1.00;;;0.80;;
7565;SDS011;3824;48.010;7.832;2022-07-10T02:18:33;1.60;;;1.00;;
7565;SDS011;3824;48.010;7.832;2022-07-10T02:21:00;1.00;;;0.90;;
7565;SDS011;3824;48.010;7.832;2022-07-10T02:23:27;0.83;;;0.70;;
7565;SDS011;3824;48.010;7.832;2022-07-10T02:25:54;1.47;;;1.20;;
7565;SDS011;3824;48.010;7.832;2022-07-10T02:28:22;0.90;;;0.70;;
7565;SDS011;3824;48.010;7.832;2022-07-10T02:30:49;1.67;;;1.40;;
7565;SDS011;3824;48.010;7.832;2022-07-10T02:33:16;1.10;;;0.77;;
7565;SDS011;3824;48.010;7.832;2022-07-10T02:35:43;0.97;;;0.70;;
7565;SDS011;3824;48.010;7.832;2022-07-10T02:38:09;1.37;;;0.70;;
7565;SDS011;3824;48.010;7.832;2022-07-10T02:40:36;1.03;;;0.70;;
7565;SDS011;3824;48.010;7.832;2022-07-10T02:43:03;1.10;;;0.90;;
7565;SDS011;3824;48.010;7.832;2022-07-10T02:45:32;0.83;;;0.70;;
7565;SDS011;3824;48.010;7.832;2022-07-10T02:47:58;1.13;;;0.70;;
7565;SDS011;3824;48.010;7.832;2022-07-10T02:50:25;1.03;;;0.93;;
7565;SDS011;3824;48.010;7.832;2022-07-10T02:52:52;1.10;;;0.80;;
7565;SDS011;3824;48.010;7.832;2022-07-10T02:55:19;1.30;;;1.00;;
7565;SDS011;3824;48.010;7.832;2022-07-10T02:57:46;0.87;;;0.70;;
7565;SDS011;3824;48.010;7.832;2022-07-10T03:00:13;2.20;;;1.17;;
7565;SDS011;3824;48.010;7.832;2022-07-10T03:02:41;0.90;;;0.70;;
7565;SDS011;3824;48.010;7.832;2022-07-10T03:05:08;1.10;;;0.90;;
7565;SDS011;3824;48.010;7.832;2022-07-10T03:07:35;7.53;;;0.97;;
7565;SDS011;3824;48.010;7.832;2022-07-10T03:10:02;1.10;;;0.97;;
7565;SDS011;3824;48.010;7.832;2022-07-10T03:12:29;0.80;;;0.80;;
7565;SDS011;3824;48.010;7.832;2022-07-10T03:14:56;1.77;;;0.90;;
7565;SDS011;3824;48.010;7.832;2022-07-10T03:17:24;1.10;;;1.00;;
7565;SDS011;3824;48.010;7.832;2022-07-10T03:19:52;1.33;;;1.10;;
7565;SDS011;3824;48.010;7.832;2022-07-10T03:22:19;1.13;;;1.03;;
7565;SDS011;3824;48.010;7.832;2022-07-10T03:24:46;1.43;;;1.33;;
7565;SDS011;3824;48.010;7.832;2022-07-10T03:27:14;2.73;;;0.87;;
7565;SDS011;3824;48.010;7.832;2022-07-10T03:29:41;1.30;;;1.20;;
7565;SDS011;3824;48.010;7.832;2022-07-10T03:32:08;3.37;;;1.00;;
7565;SDS011;3824;48.010;7.832;2022-07-10T03:34:35;1.80;;;0.93;;
7565;SDS011;3824;48.010;7.832;2022-07-10T03:37:03;1.60;;;1.50;;
7565;SDS011;3824;48.010;7.832;2022-07-10T03:39:31;1.10;;;1.00;;
7565;SDS011;3824;48.010;7.832;2022-07-10T03:42:16;0.83;;;0.70;;
7565;SDS011;3824;48.010;7.832;2022-07-10T03:44:43;1.10;;;0.90;;
7565;SDS011;3824;48.010;7.832;2022-07-10T03:47:10;1.27;;;1.17;;
7565;SDS011;3824;48.010;7.832;2022-07-10T03:49:37;1.53;;;1.10;;
7565;SDS011;3824;48.010;7.832;2022-07-10T03:52:06;2.47;;;1.20;;
7565;SDS011;3824;48.010;7.832;2022-07-10T03:54:33;1.50;;;0.93;;
7565;SDS011;3824;48.010;7.832;2022-07-10T03:57:00;1.83;;;1.53;;
7565;SDS011;3824;48.010;7.832;2022-07-10T03:59:45;2.60;;;1.73;;
7565;SDS011;3824;48.010;7.832;2022-07-10T04:02:12;1.20;;;1.10;;
7565;SDS011;3824;48.010;7.832;2022-07-10T04:04:39;1.43;;;1.33;;
7565;SDS011;3824;48.010;7.832;2022-07-10T04:07:07;1.57;;;1.47;;
7565;SDS011;3824;48.010;7.832;2022-07-10T04:09:36;1.70;;;1.60;;
7565;SDS011;3824;48.010;7.832;2022-07-10T04:12:03;1.90;;;1.27;;
7565;SDS011;3824;48.010;7.832;2022-07-10T04:14:30;1.80;;;1.70;;
7565;SDS011;3824;48.010;7.832;2022-07-10T04:16:57;2.20;;;1.77;;
7565;SDS011;3824;48.010;7.832;2022-07-10T04:19:24;2.27;;;2.17;;
7565;SDS011;3824;48.010;7.832;2022-07-10T04:21:51;2.47;;;1.73;;
7565;SDS011;3824;48.010;7.832;2022-07-10T04:24:19;1.53;;;1.43;;
7565;SDS011;3824;48.010;7.832;2022-07-10T04:26:46;4.67;;;4.07;;
7565;SDS011;3824;48.010;7.832;2022-07-10T04:29:13;2.23;;;2.13;;
7565;SDS011;3824;48.010;7.832;2022-07-10T04:31:40;1.20;;;1.00;;
7565;SDS011;3824;48.010;7.832;2022-07-10T04:34:07;1.30;;;1.20;;
7565;SDS011;3824;48.010;7.832;2022-07-10T04:36:34;2.37;;;2.27;;
7565;SDS011;3824;48.010;7.832;2022-07-10T04:39:01;2.40;;;1.27;;
7565;SDS011;3824;48.010;7.832;2022-07-10T04:41:29;1.47;;;1.37;;
7565;SDS011;3824;48.010;7.832;2022-07-10T04:43:56;1.57;;;1.47;;
7565;SDS011;3824;48.010;7.832;2022-07-10T04:46:23;1.87;;;1.67;;
7565;SDS011;3824;48.010;7.832;2022-07-10T04:48:50;1.40;;;1.13;;
7565;SDS011;3824;48.010;7.832;2022-07-10T04:51:17;1.80;;;1.70;;
7565;SDS011;3824;48.010;7.832;2022-07-10T04:53:44;1.20;;;1.10;;
7565;SDS011;3824;48.010;7.832;2022-07-10T04:56:11;6.63;;;1.10;;
7565;SDS011;3824;48.010;7.832;2022-07-10T04:58:39;1.73;;;1.20;;
7565;SDS011;3824;48.010;7.832;2022-07-10T05:01:06;1.83;;;1.60;;
7565;SDS011;3824;48.010;7.832;2022-07-10T05:03:33;2.50;;;0.93;;
7565;SDS011;3824;48.010;7.832;2022-07-10T05:06:00;1.10;;;0.90;;
7565;SDS011;3824;48.010;7.832;2022-07-10T05:08:27;1.03;;;0.80;;
7565;SDS011;3824;48.010;7.832;2022-07-10T05:10:53;1.77;;;1.57;;
7565;SDS011;3824;48.010;7.832;2022-07-10T05:13:20;0.87;;;0.80;;
7565;SDS011;3824;48.010;7.832;2022-07-10T05:15:48;0.80;;;0.80;;
7565;SDS011;3824;48.010;7.832;2022-07-10T05:18:16;1.07;;;0.60;;
7565;SDS011;3824;48.010;7.832;2022-07-10T05:20:42;2.07;;;0.60;;
7565;SDS011;3824;48.010;7.832;2022-07-10T05:23:12;0.73;;;0.60;;
7565;SDS011;3824;48.010;7.832;2022-07-10T05:25:40;0.87;;;0.60;;
7565;SDS011;3824;48.010;7.832;2022-07-10T05:28:06;1.57;;;0.60;;
7565;SDS011;3824;48.010;7.832;2022-07-10T05:30:34;0.90;;;0.70;;
7565;SDS011;3824;48.010;7.832;2022-07-10T05:33:02;1.20;;;0.60;;
7565;SDS011;3824;48.010;7.832;2022-07-10T05:35:29;0.77;;;0.50;;
7565;SDS011;3824;48.010;7.832;2022-07-10T05:37:56;1.50;;;0.60;;
7565;SDS011;3824;48.010;7.832;2022-07-10T05:40:22;0.90;;;0.50;;
7565;SDS011;3824;48.010;7.832;2022-07-10T05:42:49;0.60;;;0.40;;
7565;SDS011;3824;48.010;7.832;2022-07-10T05:45:17;1.23;;;0.90;;
7565;SDS011;3824;48.010;7.832;2022-07-10T05:47:44;0.70;;;0.50;;
7565;SDS011;3824;48.010;7.832;2022-07-10T05:50:12;0.90;;;0.60;;
7565;SDS011;3824;48.010;7.832;2022-07-10T05:52:39;0.80;;;0.50;;
7565;SDS011;3824;48.010;7.832;2022-07-10T05:55:06;0.70;;;0.50;;
7565;SDS011;3824;48.010;7.832;2022-07-10T05:57:34;0.60;;;0.40;;
7565;SDS011;3824;48.010;7.832;2022-07-10T06:00:01;0.90;;;0.57;;
7565;SDS011;3824;48.010;7.832;2022-07-10T06:02:29;2.33;;;0.57;;
7565;SDS011;3824;48.010;7.832;2022-07-10T06:04:56;0.97;;;0.43;;
7565;SDS011;3824;48.010;7.832;2022-07-10T06:07:24;0.80;;;0.50;;
7565;SDS011;3824;48.010;7.832;2022-07-10T06:09:51;0.70;;;0.50;;
7565;SDS011;3824;48.010;7.832;2022-07-10T06:12:18;0.90;;;0.50;;
7565;SDS011;3824;48.010;7.832;2022-07-10T06:14:45;5.07;;;0.67;;
7565;SDS011;3824;48.010;7.832;2022-07-10T06:17:12;0.60;;;0.50;;
7565;SDS011;3824;48.010;7.832;2022-07-10T06:19:39;0.97;;;0.47;;
7565;SDS011;3824;48.010;7.832;2022-07-10T06:22:06;1.90;;;0.60;;
7565;SDS011;3824;48.010;7.832;2022-07-10T06:24:51;1.87;;;0.50;;
7565;SDS011;3824;48.010;7.832;2022-07-10T06:27:18;2.60;;;0.60;;
7565;SDS011;3824;48.010;7.832;2022-07-10T06:29:45;1.40;;;0.60;;
7565;SDS011;3824;48.010;7.832;2022-07-10T06:32:12;0.80;;;0.53;;
7565;SDS011;3824;48.010;7.832;2022-07-10T06:34:39;2.30;;;0.50;;
7565;SDS011;3824;48.010;7.832;2022-07-10T06:37:06;1.00;;;0.70;;
7565;SDS011;3824;48.010;7.832;2022-07-10T06:39:33;0.93;;;0.50;;
7565;SDS011;3824;48.010;7.832;2022-07-10T06:42:02;2.13;;;0.63;;
7565;SDS011;3824;48.010;7.832;2022-07-10T06:44:30;2.00;;;0.60;;
7565;SDS011;3824;48.010;7.832;2022-07-10T06:46:57;0.70;;;0.50;;
7565;SDS011;3824;48.010;7.832;2022-07-10T06:49:42;3.00;;;0.43;;
7565;SDS011;3824;48.010;7.832;2022-07-10T06:52:11;0.80;;;0.40;;
7565;SDS011;3824;48.010;7.832;2022-07-10T06:54:38;1.17;;;0.50;;
7565;SDS011;3824;48.010;7.832;2022-07-10T06:57:07;2.57;;;0.50;;
7565;SDS011;3824;48.010;7.832;2022-07-10T06:59:34;0.73;;;0.50;;
7565;SDS011;3824;48.010;7.832;2022-07-10T07:02:01;0.60;;;0.50;;
7565;SDS011;3824;48.010;7.832;2022-07-10T07:04:28;0.97;;;0.50;;
7565;SDS011;3824;48.010;7.832;2022-07-10T07:06:55;1.17;;;0.50;;
7565;SDS011;3824;48.010;7.832;2022-07-10T07:09:22;0.80;;;0.70;;
7565;SDS011;3824;48.010;7.832;2022-07-10T07:11:49;1.37;;;0.40;;
7565;SDS011;3824;48.010;7.832;2022-07-10T07:14:17;1.00;;;0.50;;
7565;SDS011;3824;48.010;7.832;2022-07-10T07:16:44;0.60;;;0.50;;
7565;SDS011;3824;48.010;7.832;2022-07-10T07:19:22;0.80;;;0.40;;
7565;SDS011;3824;48.010;7.832;2022-07-10T07:21:55;0.87;;;0.53;;
7565;SDS011;3824;48.010;7.832;2022-07-10T07:24:40;0.87;;;0.60;;
7565;SDS011;3824;48.010;7.832;2022-07-10T07:27:07;1.37;;;0.50;;
7565;SDS011;3824;48.010;7.832;2022-07-10T07:29:35;2.17;;;0.70;;
7565;SDS011;3824;48.010;7.832;2022-07-10T07:32:02;0.70;;;0.60;;
7565;SDS011;3824;48.010;7.832;2022-07-10T07:34:30;1.90;;;0.50;;
7565;SDS011;3824;48.010;7.832;2022-07-10T07:36:57;0.80;;;0.50;;
7565;SDS011;3824;48.010;7.832;2022-07-10T07:39:24;1.17;;;0.50;;
7565;SDS011;3824;48.010;7.832;2022-07-10T07:41:51;0.60;;;0.40;;
7565;SDS011;3824;48.010;7.832;2022-07-10T07:44:18;0.80;;;0.50;;
7565;SDS011;3824;48.010;7.832;2022-07-10T07:46:46;0.77;;;0.50;;
7565;SDS011;3824;48.010;7.832;2022-07-10T07:49:13;0.80;;;0.40;;
7565;SDS011;3824;48.010;7.832;2022-07-10T07:51:40;0.70;;;0.43;;
7565;SDS011;3824;48.010;7.832;2022-07-10T07:54:07;5.47;;;0.50;;
7565;SDS011;3824;48.010;7.832;2022-07-10T07:56:34;0.90;;;0.50;;
7565;SDS011;3824;48.010;7.832;2022-07-10T07:59:00;1.10;;;0.53;;
7565;SDS011;3824;48.010;7.832;2022-07-10T08:01:27;0.90;;;0.50;;
7565;SDS011;3824;48.010;7.832;2022-07-10T08:03:56;0.60;;;0.50;;
7565;SDS011;3824;48.010;7.832;2022-07-10T08:06:22;2.97;;;0.40;;
7565;SDS011;3824;48.010;7.832;2022-07-10T08:08:49;0.70;;;0.50;;
7565;SDS011;3824;48.010;7.832;2022-07-10T08:11:16;2.50;;;0.50;;
7565;SDS011;3824;48.010;7.832;2022-07-10T08:13:43;1.33;;;0.47;;
7565;SDS011;3824;48.010;7.832;2022-07-10T08:16:10;1.30;;;0.40;;
7565;SDS011;3824;48.010;7.832;2022-07-10T08:18:37;1.73;;;0.50;;
7565;SDS011;3824;48.010;7.832;2022-07-10T08:21:06;1.03;;;0.50;;
7565;SDS011;3824;48.010;7.832;2022-07-10T08:23:32;0.83;;;0.50;;
7565;SDS011;3824;48.010;7.832;2022-07-10T08:26:00;1.00;;;0.50;;
7565;SDS011;3824;48.010;7.832;2022-07-10T08:28:27;0.60;;;0.40;;
7565;SDS011;3824;48.010;7.832;2022-07-10T08:30:54;0.67;;;0.40;;
7565;SDS011;3824;48.010;7.832;2022-07-10T08:33:20;1.73;;;0.50;;
7565;SDS011;3824;48.010;7.832;2022-07-10T08:35:47;3.60;;;0.40;;
7565;SDS011;3824;48.010;7.832;2022-07-10T08:38:15;0.70;;;0.47;;
7565;SDS011;3824;48.010;7.832;2022-07-10T08:40:42;1.43;;;0.40;;
7565;SDS011;3824;48.010;7.832;2022-07-10T08:43:10;0.90;;;0.60;;
7565;SDS011;3824;48.010;7.832;2022-07-10T08:45:37;0.80;;;0.50;;
7565;SDS011;3824;48.010;7.832;2022-07-10T08:48:07;0.70;;;0.50;;
7565;SDS011;3824;48.010;7.832;2022-07-10T08:50:37;1.57;;;0.60;;
7565;SDS011;3824;48.010;7.832;2022-07-10T08:53:08;1.40;;;0.93;;
7565;SDS011;3824;48.010;7.832;2022-07-10T08:55:39;2.33;;;0.57;;
7565;SDS011;3824;48.010;7.832;2022-07-10T08:58:07;0.70;;;0.50;;
7565;SDS011;3824;48.010;7.832;2022-07-10T09:00:35;0.60;;;0.50;;
7565;SDS011;3824;48.010;7.832;2022-07-10T09:03:02;0.50;;;0.33;;
7565;SDS011;3824;48.010;7.832;2022-07-10T09:05:29;0.70;;;0.40;;
7565;SDS011;3824;48.010;7.832;2022-07-10T09:07:56;0.60;;;0.50;;
7565;SDS011;3824;48.010;7.832;2022-07-10T09:10:24;2.00;;;0.50;;
7565;SDS011;3824;48.010;7.832;2022-07-10T09:12:54;1.37;;;0.80;;
7565;SDS011;3824;48.010;7.832;2022-07-10T09:15:22;0.77;;;0.60;;
7565;SDS011;3824;48.010;7.832;2022-07-10T09:17:53;1.60;;;0.50;;
7565;SDS011;3824;48.010;7.832;2022-07-10T09:20:25;0.83;;;0.50;;
7565;SDS011;3824;48.010;7.832;2022-07-10T09:22:54;0.60;;;0.50;;
7565;SDS011;3824;48.010;7.832;2022-07-10T09:25:22;0.87;;;0.60;;
7565;SDS011;3824;48.010;7.832;2022-07-10T09:28:00;3.37;;;0.53;;
7565;SDS011;3824;48.010;7.832;2022-07-10T09:30:31;0.77;;;0.50;;
7565;SDS011;3824;48.010;7.832;2022-07-10T09:33:18;0.70;;;0.43;;
7565;SDS011;3824;48.010;7.832;2022-07-10T09:35:56;1.53;;;0.80;;
7565;SDS011;3824;48.010;7.832;2022-07-10T09:38:50;2.40;;;0.50;;
7565;SDS011;3824;48.010;7.832;2022-07-10T09:41:20;0.77;;;0.50;;
7565;SDS011;3824;48.010;7.832;2022-07-10T09:43:51;2.50;;;0.53;;
7565;SDS011;3824;48.010;7.832;2022-07-10T09:46:19;0.70;;;0.50;;
7565;SDS011;3824;48.010;7.832;2022-07-10T09:48:47;2.23;;;1.20;;
7565;SDS011;3824;48.010;7.832;2022-07-10T09:51:15;0.90;;;0.50;;
7565;SDS011;3824;48.010;7.832;2022-07-10T09:53:43;0.70;;;0.47;;
7565;SDS011;3824;48.010;7.832;2022-07-10T09:56:10;0.63;;;0.50;;
7565;SDS011;3824;48.010;7.832;2022-07-10T09:58:39;0.73;;;0.57;;
7565;SDS011;3824;48.010;7.832;2022-07-10T10:01:08;1.83;;;0.60;;
7565;SDS011;3824;48.010;7.832;2022-07-10T10:03:35;1.03;;;0.63;;
7565;SDS011;3824;48.010;7.832;2022-07-10T10:06:03;5.33;;;0.50;;
7565;SDS011;3824;48.010;7.832;2022-07-10T10:08:44;0.83;;;0.50;;
7565;SDS011;3824;48.010;7.832;2022-07-10T10:11:16;1.03;;;0.60;;
7565;SDS011;3824;48.010;7.832;2022-07-10T10:13:46;0.70;;;0.43;;
7565;SDS011;3824;48.010;7.832;2022-07-10T10:16:17;1.43;;;1.20;;
7565;SDS011;3824;48.010;7.832;2022-07-10T10:18:46;0.70;;;0.60;;
7565;SDS011;3824;48.010;7.832;2022-07-10T10:21:30;0.60;;;0.50;;
7565;SDS011;3824;48.010;7.832;2022-07-10T10:23:59;1.07;;;0.60;;
7565;SDS011;3824;48.010;7.832;2022-07-10T10:26:27;0.80;;;0.50;;
7565;SDS011;3824;48.010;7.832;2022-07-10T10:28:54;0.93;;;0.50;;
7565;SDS011;3824;48.010;7.832;2022-07-10T10:31:25;0.70;;;0.50;;
7565;SDS011;3824;48.010;7.832;2022-07-10T10:33:54;0.70;;;0.50;;
7565;SDS011;3824;48.010;7.832;2022-07-10T10:36:42;0.60;;;0.50;;
7565;SDS011;3824;48.010;7.832;2022-07-10T10:39:11;1.00;;;0.60;;
7565;SDS011;3824;48.010;7.832;2022-07-10T10:41:39;1.00;;;0.67;;
7565;SDS011;3824;48.010;7.832;2022-07-10T10:44:20;0.70;;;0.50;;
7565;SDS011;3824;48.010;7.832;2022-07-10T10:47:05;2.83;;;0.50;;
7565;SDS011;3824;48.010;7.832;2022-07-10T10:52:21;1.90;;;0.50;;
7565;SDS011;3824;48.010;7.832;2022-07-10T10:55:05;0.90;;;0.90;;
7565;SDS011;3824;48.010;7.832;2022-07-10T10:57:41;1.10;;;0.40;;
7565;SDS011;3824;48.010;7.832;2022-07-10T11:00:14;1.63;;;0.60;;
7565;SDS011;3824;48.010;7.832;2022-07-10T11:05:49;1.20;;;0.70;;
7565;SDS011;3824;48.010;7.832;2022-07-10T11:08:36;0.70;;;0.50;;
7565;SDS011;3824;48.010;7.832;2022-07-10T11:14:05;0.80;;;0.40;;
7565;SDS011;3824;48.010;7.832;2022-07-10T11:16:32;2.57;;;0.53;;
7565;SDS011;3824;48.010;7.832;2022-07-10T11:19:01;0.63;;;0.50;;
7565;SDS011;3824;48.010;7.832;2022-07-10T11:21:31;0.97;;;0.97;;
7565;SDS011;3824;48.010;7.832;2022-07-10T11:24:16;1.27;;;0.50;;
7565;SDS011;3824;48.010;7.832;2022-07-10T11:27:03;1.57;;;0.60;;
7565;SDS011;3824;48.010;7.832;2022-07-10T11:29:38;3.00;;;0.60;;
7565;SDS011;3824;48.010;7.832;2022-07-10T11:32:06;3.63;;;0.60;;
7565;SDS011;3824;48.010;7.832;2022-07-10T11:34:35;1.23;;;0.50;;
7565;SDS011;3824;48.010;7.832;2022-07-10T11:37:02;1.13;;;0.50;;
7565;SDS011;3824;48.010;7.832;2022-07-10T11:39:30;0.90;;;0.50;;
7565;SDS011;3824;48.010;7.832;2022-07-10T11:41:56;0.70;;;0.40;;
7565;SDS011;3824;48.010;7.832;2022-07-10T11:44:23;1.00;;;0.50;;
7565;SDS011;3824;48.010;7.832;2022-07-10T11:46:52;2.67;;;0.60;;
7565;SDS011;3824;48.010;7.832;2022-07-10T11:49:21;0.63;;;0.50;;
7565;SDS011;3824;48.010;7.832;2022-07-10T11:51:49;1.57;;;0.50;;
7565;SDS011;3824;48.010;7.832;2022-07-10T11:54:17;0.70;;;0.50;;
7565;SDS011;3824;48.010;7.832;2022-07-10T11:56:45;0.83;;;0.40;;
7565;SDS011;3824;48.010;7.832;2022-07-10T11:59:14;0.57;;;0.40;;
7565;SDS011;3824;48.010;7.832;2022-07-10T12:01:42;0.83;;;0.40;;
7565;SDS011;3824;48.010;7.832;2022-07-10T12:04:10;0.80;;;0.40;;
7565;SDS011;3824;48.010;7.832;2022-07-10T12:06:41;0.60;;;0.30;;
7565;SDS011;3824;48.010;7.832;2022-07-10T12:09:11;0.60;;;0.40;;
7565;SDS011;3824;48.010;7.832;2022-07-10T12:11:39;0.43;;;0.30;;
7565;SDS011;3824;48.010;7.832;2022-07-10T12:14:08;0.53;;;0.30;;
7565;SDS011;3824;48.010;7.832;2022-07-10T12:16:37;0.50;;;0.30;;
7565;SDS011;3824;48.010;7.832;2022-07-10T12:19:05;0.53;;;0.20;;
7565;SDS011;3824;48.010;7.832;2022-07-10T12:21:32;1.80;;;0.50;;
7565;SDS011;3824;48.010;7.832;2022-07-10T12:24:00;0.40;;;0.30;;
7565;SDS011;3824;48.010;7.832;2022-07-10T12:26:32;0.40;;;0.30;;
7565;SDS011;3824;48.010;7.832;2022-07-10T12:29:01;0.40;;;0.30;;
7565;SDS011;3824;48.010;7.832;2022-07-10T12:31:29;2.50;;;0.30;;
7565;SDS011;3824;48.010;7.832;2022-07-10T12:33:58;0.50;;;0.30;;
7565;SDS011;3824;48.010;7.832;2022-07-10T12:39:13;0.50;;;0.30;;
7565;SDS011;3824;48.010;7.832;2022-07-10T12:41:56;0.60;;;0.47;;
7565;SDS011;3824;48.010;7.832;2022-07-10T12:44:31;1.37;;;0.40;;
7565;SDS011;3824;48.010;7.832;2022-07-10T12:47:03;0.50;;;0.30;;
7565;SDS011;3824;48.010;7.832;2022-07-10T12:49:47;3.90;;;0.40;;
7565;SDS011;3824;48.010;7.832;2022-07-10T12:52:18;0.80;;;0.30;;
7565;SDS011;3824;48.010;7.832;2022-07-10T12:55:04;0.50;;;0.33;;
7565;SDS011;3824;48.010;7.832;2022-07-10T12:57:45;1.17;;;0.40;;
7565;SDS011;3824;48.010;7.832;2022-07-10T13:00:13;0.73;;;0.30;;
7565;SDS011;3824;48.010;7.832;2022-07-10T13:02:43;1.70;;;0.30;;
7565;SDS011;3824;48.010;7.832;2022-07-10T13:05:24;0.50;;;0.30;;
7565;SDS011;3824;48.010;7.832;2022-07-10T13:07:52;0.47;;;0.30;;
7565;SDS011;3824;48.010;7.832;2022-07-10T13:10:31;0.50;;;0.30;;
7565;SDS011;3824;48.010;7.832;2022-07-10T13:13:00;0.50;;;0.40;;
7565;SDS011;3824;48.010;7.832;2022-07-10T13:15:28;1.17;;;0.30;;
7565;SDS011;3824;48.010;7.832;2022-07-10T13:17:55;0.50;;;0.30;;
7565;SDS011;3824;48.010;7.832;2022-07-10T13:20:22;1.10;;;0.30;;
7565;SDS011;3824;48.010;7.832;2022-07-10T13:22:49;0.50;;;0.30;;
7565;SDS011;3824;48.010;7.832;2022-07-10T13:25:16;1.70;;;0.30;;
7565;SDS011;3824;48.010;7.832;2022-07-10T13:27:43;0.60;;;0.33;;
7565;SDS011;3824;48.010;7.832;2022-07-10T13:30:12;0.93;;;0.30;;
7565;SDS011;3824;48.010;7.832;2022-07-10T13:32:39;0.47;;;0.30;;
7565;SDS011;3824;48.010;7.832;2022-07-10T13:35:06;1.27;;;0.50;;
7565;SDS011;3824;48.010;7.832;2022-07-10T13:37:34;0.50;;;0.30;;
7565;SDS011;3824;48.010;7.832;2022-07-10T13:40:01;0.67;;;0.30;;
7565;SDS011;3824;48.010;7.832;2022-07-10T13:42:28;0.50;;;0.30;;
7565;SDS011;3824;48.010;7.832;2022-07-10T13:44:55;0.40;;;0.30;;
7565;SDS011;3824;48.010;7.832;2022-07-10T13:47:24;0.30;;;0.20;;
7565;SDS011;3824;48.010;7.832;2022-07-10T13:49:50;0.50;;;0.27;;
7565;SDS011;3824;48.010;7.832;2022-07-10T13:52:17;0.50;;;0.30;;
7565;SDS011;3824;48.010;7.832;2022-07-10T13:54:44;0.40;;;0.30;;
7565;SDS011;3824;48.010;7.832;2022-07-10T13:57:11;0.73;;;0.30;;
7565;SDS011;3824;48.010;7.832;2022-07-10T13:59:38;0.40;;;0.20;;
7565;SDS011;3824;48.010;7.832;2022-07-10T14:02:05;0.50;;;0.30;;
7565;SDS011;3824;48.010;7.832;2022-07-10T14:04:34;0.40;;;0.20;;
7565;SDS011;3824;48.010;7.832;2022-07-10T14:07:01;0.40;;;0.20;;
7565;SDS011;3824;48.010;7.832;2022-07-10T14:09:28;0.40;;;0.20;;
7565;SDS011;3824;48.010;7.832;2022-07-10T14:11:55;0.73;;;0.30;;
7565;SDS011;3824;48.010;7.832;2022-07-10T14:14:22;0.50;;;0.30;;
7565;SDS011;3824;48.010;7.832;2022-07-10T14:16:49;0.60;;;0.30;;
7565;SDS011;3824;48.010;7.832;2022-07-10T14:19:16;0.40;;;0.20;;
7565;SDS011;3824;48.010;7.832;2022-07-10T14:21:45;0.40;;;0.20;;
7565;SDS011;3824;48.010;7.832;2022-07-10T14:24:12;0.70;;;0.20;;
7565;SDS011;3824;48.010;7.832;2022-07-10T14:26:39;0.40;;;0.20;;
7565;SDS011;3824;48.010;7.832;2022-07-10T14:29:06;0.40;;;0.20;;
7565;SDS011;3824;48.010;7.832;2022-07-10T14:31:33;0.87;;;0.87;;
7565;SDS011;3824;48.010;7.832;2022-07-10T14:34:00;0.50;;;0.20;;
7565;SDS011;3824;48.010;7.832;2022-07-10T14:36:27;0.30;;;0.20;;
7565;SDS011;3824;48.010;7.832;2022-07-10T14:38:56;0.63;;;0.20;;
7565;SDS011;3824;48.010;7.832;2022-07-10T14:41:23;0.40;;;0.20;;
7565;SDS011;3824;48.010;7.832;2022-07-10T14:43:51;0.40;;;0.20;;
7565;SDS011;3824;48.010;7.832;2022-07-10T14:46:18;0.53;;;0.30;;
7565;SDS011;3824;48.010;7.832;2022-07-10T14:48:45;0.30;;;0.20;;
7565;SDS011;3824;48.010;7.832;2022-07-10T14:51:12;0.50;;;0.30;;
7565;SDS011;3824;48.010;7.832;2022-07-10T14:53:40;0.90;;;0.20;;
7565;SDS011;3824;48.010;7.832;2022-07-10T14:56:09;0.43;;;0.20;;
7565;SDS011;3824;48.010;7.832;2022-07-10T14:58:36;0.40;;;0.20;;
7565;SDS011;3824;48.010;7.832;2022-07-10T15:01:03;0.30;;;0.20;;
7565;SDS011;3824;48.010;7.832;2022-07-10T15:03:30;0.30;;;0.17;;
7565;SDS011;3824;48.010;7.832;2022-07-10T15:05:58;0.30;;;0.20;;
7565;SDS011;3824;48.010;7.832;2022-07-10T15:08:25;0.30;;;0.20;;
7565;SDS011;3824;48.010;7.832;2022-07-10T15:10:53;0.30;;;0.20;;
7565;SDS011;3824;48.010;7.832;2022-07-10T15:13:22;0.40;;;0.20;;
7565;SDS011;3824;48.010;7.832;2022-07-10T15:15:49;0.30;;;0.10;;
7565;SDS011;3824;48.010;7.832;2022-07-10T15:18:17;0.40;;;0.20;;
7565;SDS011;3824;48.010;7.832;2022-07-10T15:20:43;0.63;;;0.20;;
7565;SDS011;3824;48.010;7.832;2022-07-10T15:23:11;0.40;;;0.13;;
7565;SDS011;3824;48.010;7.832;2022-07-10T15:25:38;1.10;;;0.20;;
7565;SDS011;3824;48.010;7.832;2022-07-10T15:28:05;0.40;;;0.20;;
7565;SDS011;3824;48.010;7.832;2022-07-10T15:30:35;0.67;;;0.10;;
7565;SDS011;3824;48.010;7.832;2022-07-10T15:33:03;0.30;;;0.10;;
7565;SDS011;3824;48.010;7.832;2022-07-10T15:35:30;0.40;;;0.20;;